Le Ponant — FGZZ — position and weather

sailwx.info

Track history (hours):
 
Tides and Currents Weather Stations Pressure Air Temp Water Temp Dewpoint Dewpoint Depression Visibility Wind Speed Wind Dir Waves Ship Positions

Le Ponant

Operator: Compangy des Iles du Ponant

Last reported at 2018-Dec-09 01:16 UTC. Time now 2018-Dec-11 07:23 UTC.
Position N 18°32' W 064°55'.

Length 84 m; draft 4.2 m.

Type: Passenger vessel. MMSI: 227186000.

Date/timePositionNaut miles runAvg speedWind from/ knotsBaromVisibWave heightAir tempDewpointWater temp
2018-Dec-09 01:16N 18°32' W 064°55'3 9.9
2018-Dec-09 00:59N 18°30' W 064°53'5 9.6
2018-Dec-09 00:30N 18°28' W 064°49'3 6.3
2018-Dec-09 00:00N 18°26' W 064°46'0 0.1
2018-Dec-08 23:30N 18°26' W 064°46'0 0.0
2018-Dec-08 23:00N 18°26' W 064°46'0 0.0
2018-Dec-08 22:27N 18°26' W 064°46'0 0.0
2018-Dec-08 21:58N 18°26' W 064°46'0 0.0
2018-Dec-08 21:21N 18°26' W 064°46'0 0.0
2018-Dec-08 20:59N 18°26' W 064°46'0 0.0
2018-Dec-08 20:29N 18°26' W 064°46'0 0.0
2018-Dec-08 19:58N 18°26' W 064°46'0 0.0
2018-Dec-08 19:30N 18°26' W 064°46'0 0.0
2018-Dec-08 18:58N 18°26' W 064°46'0 0.0
2018-Dec-08 18:27N 18°26' W 064°46'0 0.0
2018-Dec-08 17:57N 18°26' W 064°46'0 0.0
2018-Dec-08 17:27N 18°26' W 064°46'0 0.0
2018-Dec-08 16:57N 18°26' W 064°46'0 0.0
2018-Dec-08 16:28N 18°26' W 064°46'0 0.1
2018-Dec-08 15:58N 18°26' W 064°46'0 0.0
2018-Dec-08 15:28N 18°26' W 064°46'0 0.0
2018-Dec-08 14:58N 18°26' W 064°46'0 0.0
2018-Dec-08 14:27N 18°26' W 064°46'0 0.1
2018-Dec-08 14:00N 18°26' W 064°46'2 4.5
2018-Dec-08 13:30N 18°25' W 064°44'4 6.5
2018-Dec-08 12:58N 18°27' W 064°40'4 9.2
2018-Dec-08 12:30N 18°30' W 064°37'4 7.5
2018-Dec-08 11:56N 18°33' W 064°34'5 8.3
2018-Dec-08 11:21N 18°32' W 064°29'6 0.3
2018-Dec-07 11:30N 18°26' W 064°28'69 7.8
2018-Dec-07 02:36N 18°07' W 063°18'6 8.7
2018-Dec-07 01:56N 18°07' W 063°12'4 8.6
2018-Dec-07 01:28N 18°06' W 063°08'3 3.5
2018-Dec-07 00:40N 18°05' W 063°05'0 0.0
2018-Dec-07 00:06N 18°05' W 063°05'0 0.0
2018-Dec-06 23:48N 18°05' W 063°05'0 0.0
2018-Dec-06 23:24N 18°05' W 063°05'0 0.0
2018-Dec-06 22:59N 18°05' W 063°05'0 0.0
2018-Dec-06 22:26N 18°05' W 063°05'0 0.0
2018-Dec-06 21:59N 18°05' W 063°05'0 0.0
2018-Dec-06 21:27N 18°05' W 063°05'0 0.0
2018-Dec-06 20:28N 18°05' W 063°05'0 0.0
2018-Dec-06 19:43N 18°05' W 063°05'0 0.0
2018-Dec-06 18:55N 18°05' W 063°05'0 0.0
2018-Dec-06 18:08N 18°05' W 063°05'0 0.0
2018-Dec-06 17:53N 18°05' W 063°05'0 0.0
2018-Dec-06 17:10N 18°05' W 063°05'0 0.0
2018-Dec-06 16:07N 18°05' W 063°05'0 0.0
2018-Dec-06 15:50N 18°05' W 063°05'0 0.0
2018-Dec-06 14:57N 18°05' W 063°05'0 0.0
2018-Dec-06 14:30N 18°05' W 063°05'0 0.0
2018-Dec-06 12:59N 18°05' W 063°05'0 0.0
2018-Dec-06 12:20N 18°05' W 063°05'0 0.0
2018-Dec-06 11:55N 18°05' W 063°05'0 0.0
2018-Dec-06 11:07N 18°05' W 063°05'0 0.0
2018-Dec-06 10:55N 18°05' W 063°05'1 0.8
2018-Dec-06 10:06N 18°05' W 063°06'1 4.8
2018-Dec-06 09:51N 18°06' W 063°07'5 5.5
2018-Dec-06 09:00N 18°03' W 063°11'4 2.8
2018-Dec-06 07:37N 18°00' W 063°09'1 0.5
2018-Dec-06 06:27N 17°60' W 063°08'3 6.4
2018-Dec-06 06:00N 17°58' W 063°06'3 6.0
2018-Dec-06 05:30N 17°56' W 063°04'3 6.3
2018-Dec-06 04:59N 17°55' W 063°01'5 6.5
2018-Dec-06 04:18N 17°54' W 062°56'0 0.0
2018-Dec-05 09:42N 17°54' W 062°56'2 7.5
2018-Dec-05 09:24N 17°54' W 062°58'4 7.7
2018-Dec-05 08:52N 17°54' W 063°02'6 5.6
2018-Dec-05 07:46N 17°57' W 063°08'3 3.2
2018-Dec-05 06:57N 17°55' W 063°10'6 8.2
2018-Dec-05 06:15N 17°49' W 063°10'2 6.8
2018-Dec-05 05:59N 17°47' W 063°11'3 5.6
2018-Dec-05 05:27N 17°44' W 063°11'4 6.7
2018-Dec-05 04:55N 17°41' W 063°11'2 5.3
2018-Dec-05 04:28N 17°38' W 063°11'3 5.6
2018-Dec-05 03:56N 17°36' W 063°14'1 3.2
2018-Dec-05 03:29N 17°37' W 063°15'0 0.0
2018-Dec-05 02:12N 17°37' W 063°15'0 0.0
2018-Dec-05 01:34N 17°37' W 063°15'0 0.0
2018-Dec-05 01:22N 17°37' W 063°15'0 0.0
2018-Dec-05 00:14N 17°37' W 063°15'0 0.0
2018-Dec-04 23:53N 17°37' W 063°15'0 0.0
2018-Dec-04 23:23N 17°37' W 063°15'0 0.0
2018-Dec-04 22:51N 17°37' W 063°15'0 0.0
2018-Dec-04 22:19N 17°37' W 063°15'0 0.0
2018-Dec-04 21:46N 17°37' W 063°15'0 0.0
2018-Dec-04 21:19N 17°37' W 063°15'0 0.0
2018-Dec-04 20:50N 17°37' W 063°15'0 0.0
2018-Dec-04 20:22N 17°37' W 063°15'0 0.0
2018-Dec-04 19:52N 17°37' W 063°15'0 0.0
2018-Dec-04 18:50N 17°37' W 063°15'0 0.0
2018-Dec-04 18:24N 17°37' W 063°15'0 0.5
2018-Dec-04 17:43N 17°37' W 063°16'2 5.1
2018-Dec-04 17:20N 17°35' W 063°14'710.2
2018-Dec-04 16:38N 17°32' W 063°07'211.6
2018-Dec-04 16:27N 17°31' W 063°06'510.5
2018-Dec-04 15:57N 17°29' W 063°01'1 1.2
2018-Dec-04 15:08N 17°29' W 062°60'0 0.0
2018-Dec-04 14:28N 17°29' W 062°60'0 0.0
2018-Dec-04 13:38N 17°29' W 062°60'0 0.1
2018-Dec-04 10:26N 17°29' W 062°60'25 6.3
2018-Dec-04 06:29N 17°09' W 062°43'4 8.0
2018-Dec-04 05:59N 17°06' W 062°41'  
Track history (hours):
 
Tides and Currents Weather Stations Pressure Air Temp Water Temp Dewpoint Dewpoint Depression Visibility Wind Speed Wind Dir Waves Ship Positions

Le Ponant

Operator: Compangy des Iles du Ponant

Last reported at 2018-Dec-09 01:16 UTC. Time now 2018-Dec-11 07:23 UTC.
Position N 18°32' W 064°55'.

Length 84 m; draft 4.2 m.

Type: Passenger vessel. MMSI: 227186000.

Date/timePositionNaut miles runAvg speedWind from/ knotsBaromVisibWave heightAir tempDewpointWater temp
2018-Dec-09 01:16N 18°32' W 064°55'3 9.9
2018-Dec-09 00:59N 18°30' W 064°53'5 9.6
2018-Dec-09 00:30N 18°28' W 064°49'3 6.3
2018-Dec-09 00:00N 18°26' W 064°46'0 0.1
2018-Dec-08 23:30N 18°26' W 064°46'0 0.0
2018-Dec-08 23:00N 18°26' W 064°46'0 0.0
2018-Dec-08 22:27N 18°26' W 064°46'0 0.0
2018-Dec-08 21:58N 18°26' W 064°46'0 0.0
2018-Dec-08 21:21N 18°26' W 064°46'0 0.0
2018-Dec-08 20:59N 18°26' W 064°46'0 0.0
2018-Dec-08 20:29N 18°26' W 064°46'0 0.0
2018-Dec-08 19:58N 18°26' W 064°46'0 0.0
2018-Dec-08 19:30N 18°26' W 064°46'0 0.0
2018-Dec-08 18:58N 18°26' W 064°46'0 0.0
2018-Dec-08 18:27N 18°26' W 064°46'0 0.0
2018-Dec-08 17:57N 18°26' W 064°46'0 0.0
2018-Dec-08 17:27N 18°26' W 064°46'0 0.0
2018-Dec-08 16:57N 18°26' W 064°46'0 0.0
2018-Dec-08 16:28N 18°26' W 064°46'0 0.1
2018-Dec-08 15:58N 18°26' W 064°46'0 0.0
2018-Dec-08 15:28N 18°26' W 064°46'0 0.0
2018-Dec-08 14:58N 18°26' W 064°46'0 0.0
2018-Dec-08 14:27N 18°26' W 064°46'0 0.1
2018-Dec-08 14:00N 18°26' W 064°46'2 4.5
2018-Dec-08 13:30N 18°25' W 064°44'4 6.5
2018-Dec-08 12:58N 18°27' W 064°40'4 9.2
2018-Dec-08 12:30N 18°30' W 064°37'4 7.5
2018-Dec-08 11:56N 18°33' W 064°34'5 8.3
2018-Dec-08 11:21N 18°32' W 064°29'6 0.3
2018-Dec-07 11:30N 18°26' W 064°28'69 7.8
2018-Dec-07 02:36N 18°07' W 063°18'6 8.7
2018-Dec-07 01:56N 18°07' W 063°12'4 8.6
2018-Dec-07 01:28N 18°06' W 063°08'3 3.5
2018-Dec-07 00:40N 18°05' W 063°05'0 0.0
2018-Dec-07 00:06N 18°05' W 063°05'0 0.0
2018-Dec-06 23:48N 18°05' W 063°05'0 0.0
2018-Dec-06 23:24N 18°05' W 063°05'0 0.0
2018-Dec-06 22:59N 18°05' W 063°05'0 0.0
2018-Dec-06 22:26N 18°05' W 063°05'0 0.0
2018-Dec-06 21:59N 18°05' W 063°05'0 0.0
2018-Dec-06 21:27N 18°05' W 063°05'0 0.0
2018-Dec-06 20:28N 18°05' W 063°05'0 0.0
2018-Dec-06 19:43N 18°05' W 063°05'0 0.0
2018-Dec-06 18:55N 18°05' W 063°05'0 0.0
2018-Dec-06 18:08N 18°05' W 063°05'0 0.0
2018-Dec-06 17:53N 18°05' W 063°05'0 0.0
2018-Dec-06 17:10N 18°05' W 063°05'0 0.0
2018-Dec-06 16:07N 18°05' W 063°05'0 0.0
2018-Dec-06 15:50N 18°05' W 063°05'0 0.0
2018-Dec-06 14:57N 18°05' W 063°05'0 0.0
2018-Dec-06 14:30N 18°05' W 063°05'0 0.0
2018-Dec-06 12:59N 18°05' W 063°05'0 0.0
2018-Dec-06 12:20N 18°05' W 063°05'0 0.0
2018-Dec-06 11:55N 18°05' W 063°05'0 0.0
2018-Dec-06 11:07N 18°05' W 063°05'0 0.0
2018-Dec-06 10:55N 18°05' W 063°05'1 0.8
2018-Dec-06 10:06N 18°05' W 063°06'1 4.8
2018-Dec-06 09:51N 18°06' W 063°07'5 5.5
2018-Dec-06 09:00N 18°03' W 063°11'4 2.8
2018-Dec-06 07:37N 18°00' W 063°09'1 0.5
2018-Dec-06 06:27N 17°60' W 063°08'3 6.4
2018-Dec-06 06:00N 17°58' W 063°06'3 6.0
2018-Dec-06 05:30N 17°56' W 063°04'3 6.3
2018-Dec-06 04:59N 17°55' W 063°01'5 6.5
2018-Dec-06 04:18N 17°54' W 062°56'0 0.0
2018-Dec-05 09:42N 17°54' W 062°56'2 7.5
2018-Dec-05 09:24N 17°54' W 062°58'4 7.7
2018-Dec-05 08:52N 17°54' W 063°02'6 5.6
2018-Dec-05 07:46N 17°57' W 063°08'3 3.2
2018-Dec-05 06:57N 17°55' W 063°10'6 8.2
2018-Dec-05 06:15N 17°49' W 063°10'2 6.8
2018-Dec-05 05:59N 17°47' W 063°11'3 5.6
2018-Dec-05 05:27N 17°44' W 063°11'4 6.7
2018-Dec-05 04:55N 17°41' W 063°11'2 5.3
2018-Dec-05 04:28N 17°38' W 063°11'3 5.6
2018-Dec-05 03:56N 17°36' W 063°14'1 3.2
2018-Dec-05 03:29N 17°37' W 063°15'0 0.0
2018-Dec-05 02:12N 17°37' W 063°15'0 0.0
2018-Dec-05 01:34N 17°37' W 063°15'0 0.0
2018-Dec-05 01:22N 17°37' W 063°15'0 0.0
2018-Dec-05 00:14N 17°37' W 063°15'0 0.0
2018-Dec-04 23:53N 17°37' W 063°15'0 0.0
2018-Dec-04 23:23N 17°37' W 063°15'0 0.0
2018-Dec-04 22:51N 17°37' W 063°15'0 0.0
2018-Dec-04 22:19N 17°37' W 063°15'0 0.0
2018-Dec-04 21:46N 17°37' W 063°15'0 0.0
2018-Dec-04 21:19N 17°37' W 063°15'0 0.0
2018-Dec-04 20:50N 17°37' W 063°15'0 0.0
2018-Dec-04 20:22N 17°37' W 063°15'0 0.0
2018-Dec-04 19:52N 17°37' W 063°15'0 0.0
2018-Dec-04 18:50N 17°37' W 063°15'0 0.0
2018-Dec-04 18:24N 17°37' W 063°15'0 0.5
2018-Dec-04 17:43N 17°37' W 063°16'2 5.1
2018-Dec-04 17:20N 17°35' W 063°14'710.2
2018-Dec-04 16:38N 17°32' W 063°07'211.6
2018-Dec-04 16:27N 17°31' W 063°06'510.5
2018-Dec-04 15:57N 17°29' W 063°01'1 1.2
2018-Dec-04 15:08N 17°29' W 062°60'0 0.0
2018-Dec-04 14:28N 17°29' W 062°60'0 0.0
2018-Dec-04 13:38N 17°29' W 062°60'0 0.1
2018-Dec-04 10:26N 17°29' W 062°60'25 6.3
2018-Dec-04 06:29N 17°09' W 062°43'4 8.0
2018-Dec-04 05:59N 17°06' W 062°41'  

Dump ship's entire track history